Time;durP1;ratioP1;P1;durP2;ratioP2;P2;SDS_P1;SDS_P2;PMS_P1;PMS_P2;Temp;Humidity;BMP_temperature;BMP_pressure;BME280_temperature;BME280_humidity;BME280_pressure;Samples;Min_cycle;Max_cycle;Signal;HPM_P1;HPM_P2
2021/10/31 00:00:57;;;;;;;22.30;13.90;;;;;;;9.61;60.77;100430.05;85624;1319;99419;-63
2021/10/31 00:03:10;;;;;;;19.90;13.90;;;;;;;9.61;60.90;100434.87;85616;1320;85932;-64
2021/10/31 00:05:22;;;;;;;20.40;13.10;;;;;;;9.58;60.78;100435.39;85596;1320;94995;-64
2021/10/31 00:07:32;;;;;;;19.60;13.40;;;;;;;9.53;60.71;100439.63;85609;1319;78195;-62
2021/10/31 00:09:44;;;;;;;20.80;13.50;;;;;;;9.44;60.76;100441.92;85599;1323;82846;-62
2021/10/31 00:11:55;;;;;;;18.10;12.60;;;;;;;9.40;60.86;100443.05;85610;1319;99619;-62
2021/10/31 00:14:08;;;;;;;20.50;12.80;;;;;;;9.36;60.93;100443.11;85614;1320;89215;-65
2021/10/31 00:16:20;;;;;;;18.70;12.10;;;;;;;9.31;60.88;100445.46;85637;1319;95780;-65
2021/10/31 00:18:33;;;;;;;21.10;12.50;;;;;;;9.32;60.98;100451.45;85621;1319;76654;-65
2021/10/31 00:20:46;;;;;;;19.40;13.80;;;;;;;9.28;61.06;100447.27;85648;1324;82354;-65
2021/10/31 00:22:56;;;;;;;22.30;13.50;;;;;;;9.25;61.35;100450.40;85630;1323;100128;-65
2021/10/31 00:25:07;;;;;;;19.80;13.90;;;;;;;9.27;61.32;100454.05;85665;1318;86742;-65
2021/10/31 00:27:21;;;;;;;21.40;15.00;;;;;;;9.30;61.47;100452.08;85605;1319;94605;-63
2021/10/31 00:29:30;;;;;;;19.40;14.30;;;;;;;9.32;61.35;100456.13;85622;1319;79830;-61
2021/10/31 00:31:42;;;;;;;19.30;13.40;;;;;;;9.28;61.24;100455.39;85637;1320;82256;-62
2021/10/31 00:33:52;;;;;;;20.40;13.80;;;;;;;9.24;61.43;100454.98;85619;1318;97432;-64
2021/10/31 00:36:05;;;;;;;20.00;13.30;;;;;;;9.21;61.53;100453.48;85627;1319;89032;-65
2021/10/31 00:38:14;;;;;;;22.10;13.50;;;;;;;9.20;61.48;100456.66;85620;1319;95466;-62
2021/10/31 00:40:23;;;;;;;19.50;13.00;;;;;;;9.17;61.63;100453.64;85616;1319;80667;-61
2021/10/31 00:42:36;;;;;;;18.10;12.10;;;;;;;9.14;61.78;100452.52;85619;1318;82501;-64
2021/10/31 00:44:46;;;;;;;19.90;14.90;;;;;;;9.11;61.70;100457.16;85625;1318;99881;-64
2021/10/31 00:46:59;;;;;;;20.90;13.80;;;;;;;9.12;61.86;100456.05;85593;1324;89339;-64
2021/10/31 00:49:10;;;;;;;21.70;12.90;;;;;;;9.12;61.92;100467.38;85638;1319;95684;-62
2021/10/31 00:51:26;;;;;;;20.30;13.70;;;;;;;9.10;62.01;100468.52;85634;1319;80837;-62
2021/10/31 00:53:38;;;;;;;22.80;15.00;;;;;;;9.05;61.84;100462.99;85604;1319;83278;-62
2021/10/31 00:55:51;;;;;;;19.00;13.20;;;;;;;9.02;62.13;100463.15;85634;1322;100144;-61
2021/10/31 00:58:01;;;;;;;20.50;13.50;;;;;;;9.02;62.04;100465.34;85572;1320;88634;-62
2021/10/31 01:00:16;;;;;;;19.80;13.50;;;;;;;8.97;62.26;100459.58;85626;1319;94467;-62
2021/10/31 01:02:30;;;;;;;21.40;14.40;;;;;;;8.97;62.54;100453.65;85616;1319;78389;-65
2021/10/31 01:04:42;;;;;;;20.40;13.30;;;;;;;9.01;62.49;100451.27;85655;1318;81886;-66
2021/10/31 01:07:35;;;;;;;19.00;13.50;;;;;;;8.95;62.24;100456.77;85643;1318;99592;-64
2021/10/31 01:10:04;;;;;;;19.70;13.40;;;;;;;8.89;62.42;100458.17;85622;1319;87071;-62
2021/10/31 01:12:39;;;;;;;18.40;13.20;;;;;;;8.83;62.48;100457.36;85660;1322;93058;-62
2021/10/31 01:15:04;;;;;;;22.20;14.40;;;;;;;8.77;62.67;100451.05;85587;1318;78166;-62
2021/10/31 01:17:50;;;;;;;21.40;14.40;;;;;;;8.76;62.72;100451.17;85614;1324;82077;-62
2021/10/31 01:20:26;;;;;;;22.10;14.10;;;;;;;8.72;62.78;100445.38;85596;1318;100706;-64
2021/10/31 01:22:58;;;;;;;20.20;13.80;;;;;;;8.68;62.88;100448.75;85697;1317;86167;-62
2021/10/31 01:25:44;;;;;;;19.20;13.90;;;;;;;8.64;62.99;100449.38;85628;1318;94487;-62
2021/10/31 01:28:16;;;;;;;19.20;14.10;;;;;;;8.58;62.89;100456.04;85603;1318;78573;-62
2021/10/31 01:30:40;;;;;;;20.00;13.80;;;;;;;8.53;63.08;100457.30;85630;1319;83573;-62
2021/10/31 01:33:07;;;;;;;22.30;14.50;;;;;;;8.50;63.28;100451.03;85632;1322;100226;-62
2021/10/31 01:35:38;;;;;;;21.30;13.60;;;;;;;8.50;63.20;100455.14;85625;1319;89577;-62
2021/10/31 01:38:04;;;;;;;19.30;14.10;;;;;;;8.49;63.26;100454.02;85539;1319;96171;-66
2021/10/31 01:40:21;;;;;;;20.20;13.30;;;;;;;8.45;63.24;100453.73;85617;1324;78391;-65
2021/10/31 01:42:45;;;;;;;20.90;13.90;;;;;;;8.43;63.47;100453.99;85603;1322;83099;-63
2021/10/31 01:45:05;;;;;;;27.60;15.60;;;;;;;8.43;63.47;100452.36;85589;1319;99635;-62
2021/10/31 01:47:27;;;;;;;20.80;14.60;;;;;;;8.39;63.59;100451.17;85623;1319;88709;-63
2021/10/31 01:49:52;;;;;;;24.30;14.40;;;;;;;8.40;63.59;100455.31;85605;1318;94455;-64
2021/10/31 01:52:16;;;;;;;21.60;14.00;;;;;;;8.39;63.75;100456.11;85616;1320;79899;-62
2021/10/31 01:54:34;;;;;;;21.70;13.40;;;;;;;8.38;63.82;100455.15;85665;1318;83099;-65
2021/10/31 01:56:52;;;;;;;18.10;12.60;;;;;;;8.39;63.87;100456.78;85608;1323;97955;-65
2021/10/31 01:59:06;;;;;;;19.70;13.00;;;;;;;8.37;63.68;100453.77;85623;1319;88780;-62
2021/10/31 02:01:17;;;;;;;22.20;14.00;;;;;;;8.36;63.99;100453.56;85601;1323;95440;-63
2021/10/31 02:03:32;;;;;;;21.50;14.70;;;;;;;8.34;63.86;100453.64;85596;1322;78649;-63
2021/10/31 02:05:42;;;;;;;18.90;13.80;;;;;;;8.33;63.95;100452.89;85611;1325;81355;-63
2021/10/31 02:07:58;;;;;;;20.60;13.90;;;;;;;8.36;64.14;100456.97;85647;1318;97174;-66
2021/10/31 02:10:11;;;;;;;21.60;14.10;;;;;;;8.37;64.02;100455.45;85613;1325;88866;-64
2021/10/31 02:12:25;;;;;;;19.20;13.60;;;;;;;8.38;63.89;100456.19;85524;1319;92204;-64
2021/10/31 02:14:42;;;;;;;22.40;14.70;;;;;;;8.38;64.05;100458.01;85598;1319;78624;-65
2021/10/31 02:16:53;;;;;;;17.80;13.10;;;;;;;8.36;63.93;100462.15;85629;1319;82014;-65
2021/10/31 02:19:07;;;;;;;19.20;13.10;;;;;;;8.30;64.13;100458.33;85550;1318;100362;-63
2021/10/31 02:21:27;;;;;;;18.20;12.80;;;;;;;8.25;64.03;100465.66;85650;1322;87880;-63
2021/10/31 02:23:40;;;;;;;22.50;13.80;;;;;;;8.21;64.03;100467.45;85616;1322;95234;-66
2021/10/31 02:25:51;;;;;;;20.00;12.40;;;;;;;8.17;64.12;100469.97;85646;1320;76871;-66
2021/10/31 02:28:03;;;;;;;20.40;13.30;;;;;;;8.11;64.13;100474.27;85645;1316;80154;-62
2021/10/31 02:30:17;;;;;;;21.60;14.80;;;;;;;8.09;64.40;100472.95;85629;1318;100452;-62
2021/10/31 02:32:31;;;;;;;;;;;;;;;8.09;64.45;100475.38;85653;1318;88492;-64
2021/10/31 02:34:40;;;;;;;19.10;12.80;;;;;;;8.07;64.50;100472.96;85614;1319;93504;-65
2021/10/31 02:36:54;;;;;;;20.60;13.50;;;;;;;8.04;64.58;100468.96;85620;1323;79979;-64
2021/10/31 02:39:09;;;;;;;20.70;14.00;;;;;;;8.01;64.60;100463.60;85631;1319;81564;-61
2021/10/31 02:41:22;;;;;;;19.60;13.40;;;;;;;8.02;64.67;100462.38;85563;1319;99470;-62
2021/10/31 02:43:31;;;;;;;19.30;13.30;;;;;;;7.98;64.72;100469.89;85628;1322;87105;-65
2021/10/31 02:45:41;;;;;;;19.90;13.50;;;;;;;7.95;64.73;100475.04;85579;1319;94913;-66
2021/10/31 02:47:56;;;;;;;20.80;13.40;;;;;;;7.90;64.65;100479.58;85581;1318;77525;-66
2021/10/31 02:50:07;;;;;;;21.80;14.20;;;;;;;7.86;64.84;100478.23;85602;1318;82780;-66
2021/10/31 02:52:27;;;;;;;21.80;13.50;;;;;;;7.82;65.05;100473.51;85614;1319;99387;-68
2021/10/31 02:54:52;;;;;;;19.00;14.80;;;;;;;7.80;65.26;100472.83;85627;1319;89386;-63
2021/10/31 02:57:14;;;;;;;22.90;15.40;;;;;;;7.80;65.54;100471.76;85541;1325;96147;-64
2021/10/31 02:59:44;;;;;;;21.90;14.20;;;;;;;7.78;65.32;100469.61;85629;1325;80494;-69
2021/10/31 03:01:59;;;;;;;22.20;14.50;;;;;;;7.76;65.57;100470.59;85625;1319;83010;-64
2021/10/31 03:04:11;;;;;;;23.30;14.80;;;;;;;7.70;65.34;100471.20;85603;1319;98442;-62
2021/10/31 03:06:24;;;;;;;22.20;14.40;;;;;;;7.64;65.46;100482.79;85607;1319;86821;-63
2021/10/31 03:08:38;;;;;;;20.70;13.50;;;;;;;7.61;65.80;100482.79;85620;1319;94446;-63
2021/10/31 03:10:55;;;;;;;20.00;14.40;;;;;;;7.60;65.96;100485.41;85573;1319;80633;-64
2021/10/31 03:13:04;;;;;;;21.30;14.30;;;;;;;7.58;65.92;100483.92;85585;1319;83190;-61
2021/10/31 03:15:16;;;;;;;25.20;14.80;;;;;;;7.57;66.24;100487.47;85629;1319;96456;-63
2021/10/31 03:17:28;;;;;;;22.40;14.50;;;;;;;7.58;66.15;100491.65;85635;1319;87413;-64
2021/10/31 03:19:38;;;;;;;20.20;14.30;;;;;;;7.58;65.92;100492.23;85617;1319;96088;-67
2021/10/31 03:21:49;;;;;;;23.20;15.10;;;;;;;7.56;66.16;100494.12;85544;1318;81001;-64
2021/10/31 03:23:59;;;;;;;20.60;13.20;;;;;;;7.55;66.01;100491.33;85617;1319;82020;-64
2021/10/31 03:26:11;;;;;;;20.40;13.60;;;;;;;7.53;66.43;100490.63;85617;1322;99698;-61
2021/10/31 03:28:23;;;;;;;19.20;13.40;;;;;;;7.48;66.19;100491.27;85610;1319;87389;-62
2021/10/31 03:30:33;;;;;;;19.80;13.50;;;;;;;7.44;66.58;100487.55;85609;1325;95265;-64
2021/10/31 03:32:42;;;;;;;23.10;13.90;;;;;;;7.41;66.45;100490.77;85624;1318;79474;-65
2021/10/31 03:34:56;;;;;;;20.70;14.00;;;;;;;7.40;66.57;100485.45;85554;1319;83101;-66
2021/10/31 03:37:07;;;;;;;;;;;;;;;7.41;66.93;100486.62;85631;1319;99564;-65
2021/10/31 03:39:21;;;;;;;21.40;13.10;;;;;;;7.39;66.48;100483.21;85618;1319;87530;-64
2021/10/31 03:41:30;;;;;;;22.60;14.80;;;;;;;7.38;66.72;100484.56;85643;1319;95538;-65
2021/10/31 03:43:43;;;;;;;23.10;14.10;;;;;;;7.39;66.81;100489.73;85652;1322;78311;-65
2021/10/31 03:45:53;;;;;;;22.70;14.30;;;;;;;7.35;66.91;100489.23;85642;1324;80381;-65
2021/10/31 03:48:03;;;;;;;20.30;14.60;;;;;;;7.35;66.97;100494.37;85612;1318;99902;-63
2021/10/31 03:50:14;;;;;;;21.80;15.00;;;;;;;7.36;67.02;100495.02;85613;1322;87821;-61
2021/10/31 03:52:23;;;;;;;20.00;14.60;;;;;;;7.38;66.97;100493.77;85589;1320;93298;-63
2021/10/31 03:54:32;;;;;;;20.80;14.00;;;;;;;7.38;67.24;100491.45;85594;1320;78623;-62
2021/10/31 03:56:44;;;;;;;20.10;15.20;;;;;;;7.37;67.03;100491.74;85609;1322;83103;-62
2021/10/31 03:58:57;;;;;;;20.60;14.60;;;;;;;7.35;67.16;100490.80;85602;1324;99969;-64
2021/10/31 04:01:06;;;;;;;19.80;14.00;;;;;;;7.34;67.19;100494.77;85618;1319;88453;-65
2021/10/31 04:03:18;;;;;;;18.60;13.40;;;;;;;7.31;67.07;100498.49;85636;1319;93499;-64
2021/10/31 04:05:27;;;;;;;20.40;14.00;;;;;;;7.28;67.32;100495.06;85654;1318;80127;-65
2021/10/31 04:07:40;;;;;;;18.80;13.90;;;;;;;7.26;67.18;100500.43;85630;1318;81699;-61
2021/10/31 04:09:50;;;;;;;22.50;14.50;;;;;;;7.26;67.19;100499.54;85588;1322;99789;-65
2021/10/31 04:12:02;;;;;;;18.60;13.30;;;;;;;7.27;67.26;100502.29;85620;1318;89858;-62
2021/10/31 04:14:11;;;;;;;20.50;13.50;;;;;;;7.28;67.49;100504.70;85631;1323;96080;-65
2021/10/31 04:16:21;;;;;;;20.80;14.50;;;;;;;7.32;67.43;100503.35;85625;1321;78157;-64
2021/10/31 04:18:33;;;;;;;21.10;14.00;;;;;;;7.32;67.26;100508.73;85561;1318;82106;-64
2021/10/31 04:20:43;;;;;;;21.60;14.20;;;;;;;7.30;67.35;100502.66;85600;1319;99619;-62
2021/10/31 04:22:55;;;;;;;20.20;13.50;;;;;;;7.26;67.42;100509.23;85669;1319;87034;-61
2021/10/31 04:25:06;;;;;;;19.00;12.20;;;;;;;7.24;67.49;100507.26;85586;1319;95096;-63
2021/10/31 04:27:15;;;;;;;18.60;13.50;;;;;;;7.25;67.54;100510.98;85623;1320;77261;-62
2021/10/31 04:29:28;;;;;;;18.00;13.20;;;;;;;7.24;67.44;100504.46;85607;1319;83293;-62
2021/10/31 04:31:46;;;;;;;21.60;14.20;;;;;;;7.19;67.41;100503.35;85650;1321;98077;-65
2021/10/31 04:33:55;;;;;;;20.70;14.10;;;;;;;7.13;67.35;100500.05;85625;1324;89369;-65
2021/10/31 04:36:09;;;;;;;20.60;13.90;;;;;;;7.11;67.78;100504.73;85549;1320;95455;-67
2021/10/31 04:38:24;;;;;;;21.60;14.80;;;;;;;7.12;67.73;100504.84;85645;1319;78179;-65
2021/10/31 04:40:37;;;;;;;22.60;13.60;;;;;;;7.11;67.90;100504.37;85641;1319;80257;-65
2021/10/31 04:42:46;;;;;;;18.60;13.30;;;;;;;7.09;67.74;100500.67;85635;1322;100418;-65
2021/10/31 04:44:55;;;;;;;22.10;14.50;;;;;;;7.06;67.94;100506.21;85598;1319;88523;-66
2021/10/31 04:47:04;;;;;;;19.30;13.80;;;;;;;7.02;67.84;100506.64;85617;1323;95339;-67
2021/10/31 04:49:13;;;;;;;21.30;13.90;;;;;;;7.00;67.86;100507.06;85575;1322;78911;-64
2021/10/31 04:51:26;;;;;;;21.00;14.70;;;;;;;6.96;67.94;100508.16;85636;1318;79577;-62
2021/10/31 04:53:36;;;;;;;19.40;14.70;;;;;;;6.94;67.90;100512.29;85610;1321;97846;-65
2021/10/31 04:55:46;;;;;;;20.30;15.10;;;;;;;6.93;68.26;100510.83;85597;1319;88313;-67
2021/10/31 04:57:59;;;;;;;22.90;14.70;;;;;;;6.91;68.15;100508.21;85604;1319;95909;-64
2021/10/31 05:00:16;;;;;;;21.00;14.60;;;;;;;6.88;68.11;100512.96;85609;1318;81262;-65
2021/10/31 05:02:26;;;;;;;20.90;14.50;;;;;;;6.84;68.13;100508.77;85597;1319;82777;-63
2021/10/31 05:04:43;;;;;;;22.10;15.50;;;;;;;6.82;68.29;100510.90;85605;1319;100252;-63
2021/10/31 05:06:52;;;;;;;22.80;15.80;;;;;;;6.82;68.34;100513.23;85626;1319;88248;-62
2021/10/31 05:09:05;;;;;;;18.60;13.20;;;;;;;6.83;68.51;100511.58;85614;1320;96202;-67
2021/10/31 05:11:18;;;;;;;23.10;14.70;;;;;;;6.82;68.60;100514.19;85626;1322;79169;-65
2021/10/31 05:13:30;;;;;;;23.70;14.70;;;;;;;6.80;69.10;100515.30;85658;1319;82115;-63
2021/10/31 05:15:42;;;;;;;21.40;15.10;;;;;;;6.81;69.05;100516.39;85640;1319;98355;-64
2021/10/31 05:17:57;;;;;;;21.80;15.30;;;;;;;6.81;68.75;100517.48;85628;1319;89569;-62
2021/10/31 05:20:12;;;;;;;22.20;14.50;;;;;;;6.79;68.90;100516.83;85575;1319;94980;-64
2021/10/31 05:22:24;;;;;;;22.70;15.20;;;;;;;6.77;68.93;100516.63;85621;1323;80096;-64
2021/10/31 05:24:33;;;;;;;21.00;15.50;;;;;;;6.75;68.97;100519.63;85615;1315;79729;-65
2021/10/31 05:26:42;;;;;;;21.00;15.30;;;;;;;6.73;68.94;100519.09;85644;1319;100352;-66
2021/10/31 05:28:52;;;;;;;21.10;14.40;;;;;;;6.71;68.86;100516.96;85622;1322;88663;-65
2021/10/31 05:31:05;;;;;;;19.90;13.80;;;;;;;6.68;69.11;100519.06;85536;1319;92682;-62
2021/10/31 05:33:19;;;;;;;21.70;15.60;;;;;;;6.69;69.22;100520.02;85624;1318;81082;-65
2021/10/31 05:35:32;;;;;;;20.60;14.50;;;;;;;6.75;69.11;100520.63;85564;1323;83333;-65
2021/10/31 05:37:46;;;;;;;26.30;15.90;;;;;;;6.73;69.10;100519.39;85586;1322;100066;-63
2021/10/31 05:39:56;;;;;;;20.00;15.00;;;;;;;6.71;69.22;100518.73;85591;1319;88105;-65
2021/10/31 05:42:05;;;;;;;19.80;14.20;;;;;;;6.72;69.19;100512.43;85575;1318;94531;-62
2021/10/31 05:44:18;;;;;;;22.30;14.40;;;;;;;6.70;69.37;100516.60;85629;1324;81087;-66
2021/10/31 05:46:26;;;;;;;20.40;13.90;;;;;;;6.69;69.35;100517.14;85590;1319;80209;-65
2021/10/31 05:48:39;;;;;;;20.90;14.80;;;;;;;6.71;69.42;100517.80;85663;1319;99423;-65
2021/10/31 05:50:49;;;;;;;21.30;14.70;;;;;;;6.73;69.36;100516.87;85637;1322;87623;-67
2021/10/31 05:53:01;;;;;;;22.40;15.00;;;;;;;6.74;69.68;100520.42;85604;1319;95676;-63
2021/10/31 05:55:15;;;;;;;23.50;15.50;;;;;;;6.76;69.37;100518.63;85624;1323;79711;-62
2021/10/31 05:57:28;;;;;;;21.40;15.10;;;;;;;6.79;69.42;100519.71;85653;1322;83005;-62
2021/10/31 05:59:40;;;;;;;23.20;15.20;;;;;;;6.81;69.30;100518.21;85622;1319;98617;-64
2021/10/31 06:01:51;;;;;;;21.20;14.70;;;;;;;6.83;69.29;100515.98;85599;1319;89669;-64
2021/10/31 06:04:02;;;;;;;21.80;14.80;;;;;;;6.85;69.45;100520.08;85614;1322;93552;-65
2021/10/31 06:06:11;;;;;;;21.20;13.90;;;;;;;6.89;69.28;100524.83;85611;1322;78055;-65
2021/10/31 06:08:21;;;;;;;22.90;14.80;;;;;;;6.93;69.38;100526.62;85666;1319;80589;-64
2021/10/31 06:10:38;;;;;;;19.40;14.60;;;;;;;6.98;69.30;100525.17;85644;1319;100162;-64
2021/10/31 06:12:57;;;;;;;19.40;14.30;;;;;;;7.03;69.35;100530.34;85644;1318;87969;-62
2021/10/31 06:15:10;;;;;;;21.70;14.80;;;;;;;7.11;69.40;100528.19;85565;1319;95937;-66
2021/10/31 06:17:20;;;;;;;22.10;15.40;;;;;;;7.20;69.24;100525.29;85579;1322;80245;-64
2021/10/31 06:19:31;;;;;;;20.40;14.00;;;;;;;7.31;69.20;100531.23;85655;1325;81164;-62
2021/10/31 06:21:41;;;;;;;21.00;14.00;;;;;;;7.45;69.15;100531.48;85587;1322;99774;-64
2021/10/31 06:23:50;;;;;;;19.10;14.70;;;;;;;7.65;69.16;100532.66;85622;1318;87848;-65
2021/10/31 06:26:03;;;;;;;20.00;14.10;;;;;;;8.26;69.56;100543.66;85607;1319;94152;-67
2021/10/31 06:28:13;;;;;;;19.60;14.10;;;;;;;9.40;68.55;100538.64;85634;1322;78663;-67
2021/10/31 06:30:25;;;;;;;21.20;14.10;;;;;;;10.45;67.53;100540.39;85622;1318;83231;-67
2021/10/31 06:32:35;;;;;;;19.20;13.60;;;;;;;11.52;66.49;100536.77;85554;1322;100760;-64
2021/10/31 06:34:48;;;;;;;18.80;14.20;;;;;;;12.33;65.19;100544.10;85652;1318;87517;-65
2021/10/31 06:37:04;;;;;;;19.20;13.40;;;;;;;12.86;63.43;100543.27;85523;1319;97861;-65
2021/10/31 06:39:17;;;;;;;21.00;13.60;;;;;;;13.15;62.46;100543.27;85637;1319;79136;-69
2021/10/31 06:41:29;;;;;;;18.90;13.50;;;;;;;13.82;61.52;100540.91;85625;1319;82475;-70
2021/10/31 06:43:42;;;;;;;17.80;13.10;;;;;;;14.00;59.33;100535.50;85546;1318;98503;-69
2021/10/31 06:45:51;;;;;;;16.60;13.00;;;;;;;14.35;59.07;100538.32;85600;1318;88954;-68
2021/10/31 06:48:04;;;;;;;16.70;12.80;;;;;;;14.78;58.09;100536.34;85575;1318;93687;-65
2021/10/31 06:50:14;;;;;;;16.40;12.70;;;;;;;14.82;56.96;100532.11;85551;1318;80620;-64
2021/10/31 06:52:24;;;;;;;20.80;13.60;;;;;;;15.31;56.40;100526.98;85641;1319;83755;-63
2021/10/31 06:54:37;;;;;;;16.30;12.80;;;;;;;16.17;55.63;100530.52;85571;1322;99411;-63
2021/10/31 06:56:47;;;;;;;15.90;13.00;;;;;;;16.93;54.58;100538.62;85650;1323;89340;-64
2021/10/31 06:58:58;;;;;;;17.80;12.50;;;;;;;17.32;53.74;100539.75;85610;1318;95335;-63
2021/10/31 07:01:10;;;;;;;15.10;12.30;;;;;;;17.93;52.56;100543.42;85587;1319;77513;-64
2021/10/31 07:03:21;;;;;;;15.60;12.80;;;;;;;18.40;51.03;100545.44;85494;1323;82056;-69
2021/10/31 07:05:31;;;;;;;15.70;11.80;;;;;;;18.83;50.13;100537.89;85494;1325;100006;-65
2021/10/31 07:07:44;;;;;;;16.70;12.30;;;;;;;19.05;49.34;100532.51;85506;1325;89337;-64
2021/10/31 07:09:57;;;;;;;15.50;12.40;;;;;;;19.40;48.81;100539.39;85489;1320;93932;-64
2021/10/31 07:12:09;;;;;;;14.60;12.00;;;;;;;19.55;46.83;100543.81;85491;1321;77856;-65
2021/10/31 07:14:21;;;;;;;13.40;11.00;;;;;;;19.60;46.94;100548.37;85485;1321;82711;-65
2021/10/31 07:16:32;;;;;;;15.30;12.60;;;;;;;19.69;45.89;100542.01;85509;1325;99604;-64
2021/10/31 07:18:45;;;;;;;15.10;11.30;;;;;;;20.06;45.31;100543.52;85516;1325;87317;-63
2021/10/31 07:20:58;;;;;;;15.50;11.00;;;;;;;20.38;45.20;100549.83;85467;1321;95067;-67
2021/10/31 07:23:08;;;;;;;15.70;11.90;;;;;;;20.80;44.20;100548.34;85505;1325;79185;-66
2021/10/31 07:25:27;;;;;;;14.30;11.80;;;;;;;21.10;43.94;100546.88;85511;1321;81786;-68
2021/10/31 07:27:41;;;;;;;13.30;11.20;;;;;;;21.49;43.18;100547.82;85477;1320;100003;-65
2021/10/31 07:29:50;;;;;;;14.10;11.20;;;;;;;21.76;41.90;100542.45;85480;1321;87242;-67
2021/10/31 07:32:02;;;;;;;13.40;11.50;;;;;;;21.66;41.32;100544.70;84924;1325;95011;-65
2021/10/31 07:34:15;;;;;;;14.50;11.10;;;;;;;22.05;41.24;100550.96;85483;1327;77810;-66
2021/10/31 07:36:24;;;;;;;13.50;11.70;;;;;;;22.57;40.44;100547.83;85506;1321;80630;-66
2021/10/31 07:38:40;;;;;;;12.80;11.00;;;;;;;22.93;39.86;100543.86;85490;1321;99093;-65
2021/10/31 07:40:53;;;;;;;14.40;11.40;;;;;;;23.27;39.48;100547.55;85487;1322;89350;-66
2021/10/31 07:43:06;;;;;;;13.50;11.30;;;;;;;23.63;38.94;100549.20;85523;1321;95698;-65
2021/10/31 07:45:17;;;;;;;;;;;;;;;23.94;38.35;100553.92;85537;1321;79590;-66
2021/10/31 07:47:29;;;;;;;11.20;10.10;;;;;;;23.95;38.17;100556.51;85438;1325;80570;-62
2021/10/31 07:49:39;;;;;;;14.50;11.70;;;;;;;24.06;37.13;100557.31;85490;1324;98968;-66
2021/10/31 07:51:48;;;;;;;13.50;12.00;;;;;;;24.07;35.92;100551.19;85512;1320;88967;-64
2021/10/31 07:54:01;;;;;;;12.30;11.10;;;;;;;24.02;36.57;100551.81;85462;1322;95273;-64
2021/10/31 07:56:13;;;;;;;14.30;11.10;;;;;;;24.08;36.42;100551.14;85429;1322;79963;-64
2021/10/31 07:58:25;;;;;;;12.30;11.00;;;;;;;23.83;35.02;100550.75;85498;1322;82517;-67
2021/10/31 08:00:35;;;;;;;14.50;11.10;;;;;;;23.85;35.97;100550.58;85458;1325;100030;-65
2021/10/31 08:02:51;;;;;;;13.80;11.20;;;;;;;22.72;35.86;100560.15;85575;1319;88134;-63
2021/10/31 08:05:00;;;;;;;13.00;11.40;;;;;;;21.56;36.80;100557.08;85603;1324;96026;-64
2021/10/31 08:07:11;;;;;;;13.90;12.10;;;;;;;20.97;36.93;100559.30;85613;1318;78810;-64
2021/10/31 08:09:23;;;;;;;14.20;11.90;;;;;;;19.97;37.80;100557.92;85602;1319;83759;-68
2021/10/31 08:11:33;;;;;;;12.80;10.60;;;;;;;19.00;38.53;100560.50;85599;1319;97992;-71
2021/10/31 08:13:46;;;;;;;12.70;11.20;;;;;;;18.62;39.42;100563.67;85618;1322;88495;-65
2021/10/31 08:15:58;;;;;;;14.00;11.90;;;;;;;18.34;40.14;100561.48;85606;1319;95250;-64
2021/10/31 08:18:08;;;;;;;13.90;11.60;;;;;;;18.05;40.44;100554.29;85616;1318;81480;-70
2021/10/31 08:20:18;;;;;;;14.60;10.70;;;;;;;17.66;40.86;100558.81;85625;1319;82954;-66
2021/10/31 08:22:27;;;;;;;13.80;11.20;;;;;;;17.43;41.66;100557.73;85573;1319;99479;-65
2021/10/31 08:24:36;;;;;;;13.50;11.00;;;;;;;17.52;42.04;100556.86;85600;1318;87997;-66
2021/10/31 08:26:47;;;;;;;14.80;11.50;;;;;;;17.23;42.36;100551.30;85609;1319;94841;-66
2021/10/31 08:29:03;;;;;;;16.30;11.40;;;;;;;17.00;42.62;100560.43;85622;1320;78078;-64
2021/10/31 08:31:12;;;;;;;13.70;11.10;;;;;;;16.68;42.78;100560.94;85657;1324;80951;-66
2021/10/31 08:33:25;;;;;;;14.80;11.70;;;;;;;16.75;43.41;100558.89;85627;1319;99360;-62
2021/10/31 08:35:34;;;;;;;13.60;11.70;;;;;;;17.00;43.89;100563.45;85630;1319;89672;-62
2021/10/31 08:37:43;;;;;;;15.40;11.40;;;;;;;17.00;43.77;100558.97;85593;1319;95613;-64
2021/10/31 08:39:55;;;;;;;15.30;11.30;;;;;;;17.62;43.81;100557.77;85639;1319;77516;-64
2021/10/31 08:42:05;;;;;;;;;;;;;;;18.63;42.88;100554.29;85633;1318;82621;-64
2021/10/31 08:44:18;;;;;;;15.10;11.30;;;;;;;19.20;42.04;100555.68;85629;1319;98375;-66
2021/10/31 08:46:33;;;;;;;16.10;11.70;;;;;;;19.83;41.48;100551.80;85618;1318;88160;-64
2021/10/31 08:48:51;;;;;;;12.30;11.00;;;;;;;20.64;40.50;100546.14;85710;1318;95670;-66
2021/10/31 08:51:04;;;;;;;12.80;11.20;;;;;;;20.95;40.30;100546.98;85586;1319;78498;-65
2021/10/31 08:53:19;;;;;;;12.90;10.80;;;;;;;21.37;39.70;100545.79;85615;1318;83425;-67
2021/10/31 08:55:30;;;;;;;13.60;10.70;;;;;;;22.11;39.19;100546.84;85632;1318;98687;-67
2021/10/31 08:57:43;;;;;;;12.90;10.90;;;;;;;22.74;38.59;100551.33;85663;1322;88545;-67
2021/10/31 09:00:00;;;;;;;11.80;10.50;;;;;;;22.90;37.16;100546.48;85635;1319;92892;-64
2021/10/31 09:02:15;;;;;;;12.60;11.10;;;;;;;22.80;37.02;100549.12;85616;1322;80046;-64
2021/10/31 09:04:28;;;;;;;11.20;10.00;;;;;;;23.13;36.10;100543.19;85625;1319;82900;-67
2021/10/31 09:06:45;;;;;;;13.70;10.50;;;;;;;23.09;36.16;100545.48;85622;1318;97908;-63
2021/10/31 09:08:58;;;;;;;13.00;11.10;;;;;;;23.23;36.19;100542.89;85629;1322;87282;-61
2021/10/31 09:11:10;;;;;;;11.70;10.00;;;;;;;23.60;35.84;100536.00;85616;1318;95154;-65
2021/10/31 09:13:27;;;;;;;13.20;10.50;;;;;;;23.70;35.58;100537.80;85619;1319;81273;-69
2021/10/31 09:15:41;;;;;;;13.80;10.00;;;;;;;23.88;35.50;100540.11;85614;1319;80950;-63
2021/10/31 09:17:55;;;;;;;10.90;9.60;;;;;;;23.81;35.01;100539.80;85610;1324;100112;-66
2021/10/31 09:20:06;;;;;;;13.80;10.00;;;;;;;23.77;35.41;100538.70;85631;1319;88660;-65
2021/10/31 09:22:20;;;;;;;13.20;9.90;;;;;;;23.90;35.55;100533.59;85609;1322;95451;-66
2021/10/31 09:24:33;;;;;;;12.20;10.20;;;;;;;23.86;35.10;100529.73;85623;1322;79997;-62
2021/10/31 09:26:47;;;;;;;11.50;10.40;;;;;;;24.07;35.10;100536.00;85651;1319;80945;-64
2021/10/31 09:29:06;;;;;;;11.20;10.00;;;;;;;24.39;35.11;100530.79;85629;1319;98044;-64
2021/10/31 09:31:18;;;;;;;12.40;10.30;;;;;;;24.40;34.68;100527.36;85520;1319;88723;-66
2021/10/31 09:33:27;;;;;;;11.30;10.00;;;;;;;24.11;34.05;100525.17;85592;1319;95828;-65
2021/10/31 09:35:47;;;;;;;11.90;9.60;;;;;;;24.16;34.14;100521.24;85523;1322;78291;-65
2021/10/31 09:38:07;;;;;;;13.10;10.00;;;;;;;24.36;33.71;100521.95;85630;1319;81789;-62
2021/10/31 09:40:23;;;;;;;11.30;9.90;;;;;;;24.15;33.90;100523.61;85605;1322;99675;-64
2021/10/31 09:42:34;;;;;;;11.70;10.00;;;;;;;24.06;33.90;100514.75;85600;1319;88690;-64
2021/10/31 09:44:49;;;;;;;12.00;9.90;;;;;;;23.98;33.46;100514.62;85644;1317;93825;-64
2021/10/31 09:46:59;;;;;;;11.20;9.70;;;;;;;23.92;33.89;100509.14;85623;1319;78664;-65
2021/10/31 09:49:10;;;;;;;10.90;9.50;;;;;;;23.86;33.92;100508.26;85635;1319;81581;-65
2021/10/31 09:51:23;;;;;;;11.50;9.80;;;;;;;23.76;33.97;100514.09;85620;1318;99044;-64
2021/10/31 09:53:36;;;;;;;10.70;9.70;;;;;;;23.34;33.86;100513.07;85634;1323;88545;-63
2021/10/31 09:55:45;;;;;;;11.50;10.30;;;;;;;22.89;34.37;100519.02;85631;1319;95632;-64
2021/10/31 09:57:57;;;;;;;12.10;10.20;;;;;;;22.85;34.52;100516.36;85622;1319;79435;-65
2021/10/31 10:00:10;;;;;;;12.20;10.30;;;;;;;22.26;34.41;100519.39;85641;1318;81462;-66
2021/10/31 10:02:48;;;;;;;12.00;9.90;;;;;;;21.63;35.13;100511.61;85613;1319;97423;-65
2021/10/31 10:05:00;;;;;;;11.90;10.20;;;;;;;21.02;35.72;100508.73;85597;1319;88870;-64
2021/10/31 10:07:15;;;;;;;12.40;10.10;;;;;;;20.23;36.63;100512.20;85617;1322;94284;-64
2021/10/31 10:09:30;;;;;;;13.10;10.30;;;;;;;19.71;37.28;100510.97;85608;1319;78687;-63
2021/10/31 10:11:45;;;;;;;13.60;10.40;;;;;;;19.40;37.62;100511.57;85610;1319;82679;-61